sensor_id;sensor_type;location;lat;lon;timestamp;pressure;altitude;pressure_sealevel;temperature;humidity
78625;BME280;67944;0.000;0.000;2023-08-24T00:00:05;100819.72;;;28.83;41.87
78625;BME280;67944;0.000;0.000;2023-08-24T00:02:31;100819.97;;;28.82;41.71
78625;BME280;67944;0.000;0.000;2023-08-24T00:04:57;100808.41;;;28.81;41.51
78625;BME280;67944;0.000;0.000;2023-08-24T00:07:22;100803.25;;;28.80;41.53
78625;BME280;67944;0.000;0.000;2023-08-24T00:09:48;100811.53;;;28.78;41.93
78625;BME280;67944;0.000;0.000;2023-08-24T00:12:13;100819.59;;;28.78;41.80
78625;BME280;67944;0.000;0.000;2023-08-24T00:14:39;100815.50;;;28.76;41.70
78625;BME280;67944;0.000;0.000;2023-08-24T00:17:04;100817.34;;;28.75;41.59
78625;BME280;67944;0.000;0.000;2023-08-24T00:19:30;100801.28;;;28.75;41.54
78625;BME280;67944;0.000;0.000;2023-08-24T00:21:55;100801.50;;;28.74;42.05
78625;BME280;67944;0.000;0.000;2023-08-24T00:24:20;100806.03;;;28.73;41.71
78625;BME280;67944;0.000;0.000;2023-08-24T00:26:46;100795.53;;;28.72;41.81
78625;BME280;67944;0.000;0.000;2023-08-24T00:29:11;100799.25;;;28.71;41.87
78625;BME280;67944;0.000;0.000;2023-08-24T00:31:37;100788.75;;;28.69;41.78
78625;BME280;67944;0.000;0.000;2023-08-24T00:34:03;100801.34;;;28.69;41.66
78625;BME280;67944;0.000;0.000;2023-08-24T00:36:28;100788.16;;;28.67;42.12
78625;BME280;67944;0.000;0.000;2023-08-24T00:38:54;100789.22;;;28.66;42.32
78625;BME280;67944;0.000;0.000;2023-08-24T00:41:20;100784.88;;;28.65;42.30
78625;BME280;67944;0.000;0.000;2023-08-24T00:43:46;100792.13;;;28.64;42.03
78625;BME280;67944;0.000;0.000;2023-08-24T00:46:12;100791.50;;;28.62;42.22
78625;BME280;67944;0.000;0.000;2023-08-24T00:48:38;100796.06;;;28.62;41.97
78625;BME280;67944;0.000;0.000;2023-08-24T00:51:04;100818.53;;;28.61;41.84
78625;BME280;67944;0.000;0.000;2023-08-24T00:53:31;100821.22;;;28.61;42.35
78625;BME280;67944;0.000;0.000;2023-08-24T00:55:57;100824.13;;;28.59;42.17
78625;BME280;67944;0.000;0.000;2023-08-24T00:58:23;100823.31;;;28.59;41.87
78625;BME280;67944;0.000;0.000;2023-08-24T01:00:51;100829.75;;;28.58;42.26
78625;BME280;67944;0.000;0.000;2023-08-24T01:03:17;100820.28;;;28.55;42.35
78625;BME280;67944;0.000;0.000;2023-08-24T01:05:44;100821.31;;;28.54;42.16
78625;BME280;67944;0.000;0.000;2023-08-24T01:08:10;100816.19;;;28.53;41.87
78625;BME280;67944;0.000;0.000;2023-08-24T01:11:01;100819.31;;;28.50;42.48
78625;BME280;67944;0.000;0.000;2023-08-24T01:14:00;100812.75;;;28.46;42.25
78625;BME280;67944;0.000;0.000;2023-08-24T01:16:32;100808.06;;;28.41;42.13
78625;BME280;67944;0.000;0.000;2023-08-24T01:18:59;100813.03;;;28.38;42.18
78625;BME280;67944;0.000;0.000;2023-08-24T01:21:27;100805.47;;;28.35;42.28
78625;BME280;67944;0.000;0.000;2023-08-24T01:24:31;100816.03;;;28.29;42.21
78625;BME280;67944;0.000;0.000;2023-08-24T01:27:01;100818.34;;;28.26;42.38
78625;BME280;67944;0.000;0.000;2023-08-24T01:29:27;100811.78;;;28.22;42.26
78625;BME280;67944;0.000;0.000;2023-08-24T01:31:53;100813.00;;;28.19;42.72
78625;BME280;67944;0.000;0.000;2023-08-24T01:34:19;100817.16;;;28.15;42.39
78625;BME280;67944;0.000;0.000;2023-08-24T01:36:44;100820.09;;;28.14;42.16
78625;BME280;67944;0.000;0.000;2023-08-24T01:39:18;100823.22;;;28.11;42.24
78625;BME280;67944;0.000;0.000;2023-08-24T01:41:52;100817.47;;;28.07;42.51
78625;BME280;67944;0.000;0.000;2023-08-24T01:44:22;100828.63;;;28.04;42.60
78625;BME280;67944;0.000;0.000;2023-08-24T01:46:52;100829.66;;;28.03;42.51
78625;BME280;67944;0.000;0.000;2023-08-24T01:49:19;100818.56;;;27.99;42.43
78625;BME280;67944;0.000;0.000;2023-08-24T01:51:46;100816.09;;;27.98;42.27
78625;BME280;67944;0.000;0.000;2023-08-24T01:54:12;100808.50;;;27.95;42.29
78625;BME280;67944;0.000;0.000;2023-08-24T01:56:38;100808.16;;;27.91;42.37
78625;BME280;67944;0.000;0.000;2023-08-24T01:59:03;100813.75;;;27.90;42.18
78625;BME280;67944;0.000;0.000;2023-08-24T02:01:29;100797.28;;;27.86;42.15
78625;BME280;67944;0.000;0.000;2023-08-24T02:03:54;100796.69;;;27.84;42.59
78625;BME280;67944;0.000;0.000;2023-08-24T02:06:21;100797.94;;;27.82;42.36
78625;BME280;67944;0.000;0.000;2023-08-24T02:08:46;100798.16;;;27.80;42.61
78625;BME280;67944;0.000;0.000;2023-08-24T02:11:12;100783.34;;;27.78;42.37
78625;BME280;67944;0.000;0.000;2023-08-24T02:13:38;100782.75;;;27.76;42.42
78625;BME280;67944;0.000;0.000;2023-08-24T02:16:08;100782.97;;;27.74;42.36
78625;BME280;67944;0.000;0.000;2023-08-24T02:18:37;100774.34;;;27.72;42.54
78625;BME280;67944;0.000;0.000;2023-08-24T02:21:10;100780.97;;;27.70;42.41
78625;BME280;67944;0.000;0.000;2023-08-24T02:23:37;100779.56;;;27.67;42.24
78625;BME280;67944;0.000;0.000;2023-08-24T02:26:02;100776.28;;;27.65;42.60
78625;BME280;67944;0.000;0.000;2023-08-24T02:28:29;100773.81;;;27.63;42.59
78625;BME280;67944;0.000;0.000;2023-08-24T02:30:54;100768.69;;;27.62;42.51
78625;BME280;67944;0.000;0.000;2023-08-24T02:33:25;100772.63;;;27.59;42.55
78625;BME280;67944;0.000;0.000;2023-08-24T02:35:50;100774.88;;;27.56;42.62
78625;BME280;67944;0.000;0.000;2023-08-24T02:38:16;100772.41;;;27.54;42.35
78625;BME280;67944;0.000;0.000;2023-08-24T02:40:41;100765.63;;;27.52;42.76
78625;BME280;67944;0.000;0.000;2023-08-24T02:43:07;100759.69;;;27.50;42.41
78625;BME280;67944;0.000;0.000;2023-08-24T02:45:33;100752.72;;;27.49;43.12
78625;BME280;67944;0.000;0.000;2023-08-24T02:47:58;100757.47;;;27.47;42.54
78625;BME280;67944;0.000;0.000;2023-08-24T02:50:23;100760.38;;;27.45;42.39
78625;BME280;67944;0.000;0.000;2023-08-24T02:52:49;100766.75;;;27.44;42.56
78625;BME280;67944;0.000;0.000;2023-08-24T02:55:16;100770.47;;;27.43;42.53
78625;BME280;67944;0.000;0.000;2023-08-24T02:57:42;100761.84;;;27.41;42.92
78625;BME280;67944;0.000;0.000;2023-08-24T03:00:07;100761.22;;;27.39;42.66
78625;BME280;67944;0.000;0.000;2023-08-24T03:02:35;100768.66;;;27.37;42.78
78625;BME280;67944;0.000;0.000;2023-08-24T03:05:02;100759.00;;;27.36;42.64
78625;BME280;67944;0.000;0.000;2023-08-24T03:07:27;100769.91;;;27.35;42.71
78625;BME280;67944;0.000;0.000;2023-08-24T03:09:53;100770.13;;;27.33;42.99
78625;BME280;67944;0.000;0.000;2023-08-24T03:12:18;100765.81;;;27.32;42.93
78625;BME280;67944;0.000;0.000;2023-08-24T03:14:44;100770.53;;;27.30;42.69
78625;BME280;67944;0.000;0.000;2023-08-24T03:17:09;100763.56;;;27.29;42.95
78625;BME280;67944;0.000;0.000;2023-08-24T03:19:35;100759.50;;;27.26;43.09
78625;BME280;67944;0.000;0.000;2023-08-24T03:22:00;100745.50;;;27.24;43.04
78625;BME280;67944;0.000;0.000;2023-08-24T03:24:26;100721.66;;;27.23;42.66
78625;BME280;67944;0.000;0.000;2023-08-24T03:26:51;100697.00;;;27.21;43.48
78625;BME280;67944;0.000;0.000;2023-08-24T03:29:17;100674.38;;;27.17;43.05
78625;BME280;67944;0.000;0.000;2023-08-24T03:31:42;100670.13;;;27.09;42.82
78625;BME280;67944;0.000;0.000;2023-08-24T03:34:07;100666.72;;;27.02;43.19
78625;BME280;67944;0.000;0.000;2023-08-24T03:36:33;100657.91;;;26.95;43.32
78625;BME280;67944;0.000;0.000;2023-08-24T03:38:58;100649.91;;;26.88;43.09
78625;BME280;67944;0.000;0.000;2023-08-24T03:41:24;100652.44;;;26.83;43.18
78625;BME280;67944;0.000;0.000;2023-08-24T03:43:49;100659.44;;;26.78;43.71
78625;BME280;67944;0.000;0.000;2023-08-24T03:46:15;100664.41;;;26.74;43.69
78625;BME280;67944;0.000;0.000;2023-08-24T03:48:40;100666.91;;;26.69;44.09
78625;BME280;67944;0.000;0.000;2023-08-24T03:51:06;100661.63;;;26.62;43.84
78625;BME280;67944;0.000;0.000;2023-08-24T03:53:31;100672.94;;;26.58;44.12
78625;BME280;67944;0.000;0.000;2023-08-24T03:55:58;100673.38;;;26.55;43.84
78625;BME280;67944;0.000;0.000;2023-08-24T03:58:23;100669.28;;;26.52;44.30
78625;BME280;67944;0.000;0.000;2023-08-24T04:00:49;100658.81;;;26.51;44.59
78625;BME280;67944;0.000;0.000;2023-08-24T04:03:15;100653.66;;;26.49;43.99
78625;BME280;67944;0.000;0.000;2023-08-24T04:05:41;100650.38;;;26.47;44.35
78625;BME280;67944;0.000;0.000;2023-08-24T04:08:06;100656.38;;;26.43;44.55
78625;BME280;67944;0.000;0.000;2023-08-24T04:10:32;100656.63;;;26.41;44.96
78625;BME280;67944;0.000;0.000;2023-08-24T04:12:58;100655.59;;;26.36;44.47
78625;BME280;67944;0.000;0.000;2023-08-24T04:15:23;100659.72;;;26.32;44.70
78625;BME280;67944;0.000;0.000;2023-08-24T04:17:49;100653.13;;;26.27;45.23
78625;BME280;67944;0.000;0.000;2023-08-24T04:20:15;100657.88;;;26.25;44.91
78625;BME280;67944;0.000;0.000;2023-08-24T04:22:41;100668.75;;;26.24;45.29
78625;BME280;67944;0.000;0.000;2023-08-24T04:25:07;100675.34;;;26.21;44.95
78625;BME280;67944;0.000;0.000;2023-08-24T04:27:33;100674.97;;;26.18;45.47
78625;BME280;67944;0.000;0.000;2023-08-24T04:29:59;100680.53;;;26.16;45.12
78625;BME280;67944;0.000;0.000;2023-08-24T04:32:24;100673.97;;;26.12;45.62
78625;BME280;67944;0.000;0.000;2023-08-24T04:34:50;100665.34;;;26.10;45.64
78625;BME280;67944;0.000;0.000;2023-08-24T04:37:15;100665.56;;;26.09;45.86
78625;BME280;67944;0.000;0.000;2023-08-24T04:39:41;100669.25;;;26.08;45.50
78625;BME280;67944;0.000;0.000;2023-08-24T04:42:06;100678.50;;;26.05;45.95
78625;BME280;67944;0.000;0.000;2023-08-24T04:44:32;100680.56;;;26.03;45.90
78625;BME280;67944;0.000;0.000;2023-08-24T04:46:58;100673.78;;;26.01;45.63
78625;BME280;67944;0.000;0.000;2023-08-24T04:49:23;100668.91;;;25.98;45.87
78625;BME280;67944;0.000;0.000;2023-08-24T04:51:49;100676.50;;;25.94;46.27
78625;BME280;67944;0.000;0.000;2023-08-24T04:54:14;100681.22;;;25.92;45.85
78625;BME280;67944;0.000;0.000;2023-08-24T04:56:40;100672.59;;;25.90;45.68
78625;BME280;67944;0.000;0.000;2023-08-24T04:59:05;100673.63;;;25.89;45.75
78625;BME280;67944;0.000;0.000;2023-08-24T05:01:34;100670.97;;;25.89;46.08
78625;BME280;67944;0.000;0.000;2023-08-24T05:03:59;100681.63;;;25.89;46.57
78625;BME280;67944;0.000;0.000;2023-08-24T05:06:25;100672.00;;;25.88;46.03
78625;BME280;67944;0.000;0.000;2023-08-24T05:08:50;100674.88;;;25.86;46.74
78625;BME280;67944;0.000;0.000;2023-08-24T05:11:19;100683.69;;;25.87;46.20
78625;BME280;67944;0.000;0.000;2023-08-24T05:13:45;100697.25;;;25.85;46.93
78625;BME280;67944;0.000;0.000;2023-08-24T05:16:12;100711.41;;;25.86;46.31
78625;BME280;67944;0.000;0.000;2023-08-24T05:18:37;100733.78;;;25.85;46.38
78625;BME280;67944;0.000;0.000;2023-08-24T05:21:04;100745.47;;;25.84;46.66
78625;BME280;67944;0.000;0.000;2023-08-24T05:23:33;100774.22;;;25.82;47.21
78625;BME280;67944;0.000;0.000;2023-08-24T05:26:00;100791.25;;;25.81;47.27
78625;BME280;67944;0.000;0.000;2023-08-24T05:28:27;100808.50;;;25.78;46.94
78625;BME280;67944;0.000;0.000;2023-08-24T05:30:54;100820.41;;;25.76;46.59
78625;BME280;67944;0.000;0.000;2023-08-24T05:33:21;100834.16;;;25.73;47.25
78625;BME280;67944;0.000;0.000;2023-08-24T05:35:47;100842.38;;;25.71;47.18
78625;BME280;67944;0.000;0.000;2023-08-24T05:38:13;100850.59;;;25.70;47.89
78625;BME280;67944;0.000;0.000;2023-08-24T06:33:17;100776.28;;;25.67;48.98
78625;BME280;67944;0.000;0.000;2023-08-24T06:35:42;100756.59;;;25.68;49.04
78625;BME280;67944;0.000;0.000;2023-08-24T06:38:08;100765.22;;;25.70;49.38
78625;BME280;67944;0.000;0.000;2023-08-24T06:40:33;100743.88;;;25.70;49.86
78625;BME280;67944;0.000;0.000;2023-08-24T06:42:59;100731.97;;;25.72;49.05
78625;BME280;67944;0.000;0.000;2023-08-24T06:45:24;100745.72;;;25.76;49.65
78625;BME280;67944;0.000;0.000;2023-08-24T06:47:50;100741.59;;;25.80;49.15
78625;BME280;67944;0.000;0.000;2023-08-24T06:50:16;100745.47;;;25.84;49.37
78625;BME280;67944;0.000;0.000;2023-08-24T06:52:42;100741.16;;;25.89;49.91
78625;BME280;67944;0.000;0.000;2023-08-24T06:55:09;100746.91;;;25.93;49.73
78625;BME280;67944;0.000;0.000;2023-08-24T06:57:35;100739.53;;;25.95;48.96
78625;BME280;67944;0.000;0.000;2023-08-24T07:00:01;100732.13;;;25.97;49.19
78625;BME280;67944;0.000;0.000;2023-08-24T07:02:26;100725.31;;;26.01;49.47
78625;BME280;67944;0.000;0.000;2023-08-24T07:04:52;100728.19;;;26.06;49.67
78625;BME280;67944;0.000;0.000;2023-08-24T07:07:17;100729.41;;;26.10;49.60
78625;BME280;67944;0.000;0.000;2023-08-24T07:09:43;100730.63;;;26.14;49.20
78625;BME280;67944;0.000;0.000;2023-08-24T07:12:09;100713.16;;;26.18;49.07
78625;BME280;67944;0.000;0.000;2023-08-24T07:14:38;100714.81;;;26.19;49.17
78625;BME280;67944;0.000;0.000;2023-08-24T07:17:03;100718.28;;;26.20;49.02
78625;BME280;67944;0.000;0.000;2023-08-24T07:19:29;100704.13;;;26.19;49.26
78625;BME280;67944;0.000;0.000;2023-08-24T07:21:54;100710.06;;;26.21;49.01
78625;BME280;67944;0.000;0.000;2023-08-24T07:24:20;100712.50;;;26.23;49.54
78625;BME280;67944;0.000;0.000;2023-08-24T07:26:46;100718.47;;;26.25;48.79
78625;BME280;67944;0.000;0.000;2023-08-24T07:29:12;100716.41;;;26.27;49.33
78625;BME280;67944;0.000;0.000;2023-08-24T07:31:37;100715.81;;;26.32;49.68
78625;BME280;67944;0.000;0.000;2023-08-24T07:34:03;100716.00;;;26.37;49.55
78625;BME280;67944;0.000;0.000;2023-08-24T07:36:31;100729.50;;;26.42;49.43
78625;BME280;67944;0.000;0.000;2023-08-24T07:38:57;100732.38;;;26.47;49.13
78625;BME280;67944;0.000;0.000;2023-08-24T07:41:23;100748.59;;;26.52;49.39
78625;BME280;67944;0.000;0.000;2023-08-24T07:43:48;100758.44;;;26.58;49.19
78625;BME280;67944;0.000;0.000;2023-08-24T07:46:14;100760.47;;;26.62;49.05
78625;BME280;67944;0.000;0.000;2023-08-24T07:48:39;100759.00;;;26.67;48.84
78625;BME280;67944;0.000;0.000;2023-08-24T07:51:05;100759.38;;;26.70;49.04
78625;BME280;67944;0.000;0.000;2023-08-24T07:53:31;100756.50;;;26.72;48.80
78625;BME280;67944;0.000;0.000;2023-08-24T07:55:58;100757.94;;;26.74;48.62
78625;BME280;67944;0.000;0.000;2023-08-24T07:58:24;100755.25;;;26.74;49.02
78625;BME280;67944;0.000;0.000;2023-08-24T08:00:50;100746.59;;;26.79;49.11
78625;BME280;67944;0.000;0.000;2023-08-24T08:03:18;100748.66;;;26.83;49.03
78625;BME280;67944;0.000;0.000;2023-08-24T08:05:43;100730.91;;;26.89;49.03
78625;BME280;67944;0.000;0.000;2023-08-24T08:08:08;100709.91;;;26.92;48.86
78625;BME280;67944;0.000;0.000;2023-08-24T08:10:34;100695.94;;;26.97;48.84
78625;BME280;67944;0.000;0.000;2023-08-24T08:12:59;100677.41;;;27.02;49.20
78625;BME280;67944;0.000;0.000;2023-08-24T08:15:25;100657.22;;;27.06;49.00
78625;BME280;67944;0.000;0.000;2023-08-24T08:17:51;100643.16;;;27.11;48.91
78625;BME280;67944;0.000;0.000;2023-08-24T08:20:16;100635.75;;;27.13;49.26
78625;BME280;67944;0.000;0.000;2023-08-24T08:22:42;100618.25;;;27.17;48.86
78625;BME280;67944;0.000;0.000;2023-08-24T08:25:07;100609.78;;;27.20;49.10
78625;BME280;67944;0.000;0.000;2023-08-24T08:27:33;100609.34;;;27.23;48.95
78625;BME280;67944;0.000;0.000;2023-08-24T08:29:59;100599.03;;;27.26;49.11
78625;BME280;67944;0.000;0.000;2023-08-24T08:32:24;100591.34;;;27.30;48.98
78625;BME280;67944;0.000;0.000;2023-08-24T08:34:54;100586.38;;;27.34;48.96
78625;BME280;67944;0.000;0.000;2023-08-24T08:37:20;100584.09;;;27.37;48.88
78625;BME280;67944;0.000;0.000;2023-08-24T08:39:46;100588.19;;;27.40;48.81
78625;BME280;67944;0.000;0.000;2023-08-24T08:42:13;100597.63;;;27.42;48.69
78625;BME280;67944;0.000;0.000;2023-08-24T08:44:41;100605.44;;;27.44;48.69
78625;BME280;67944;0.000;0.000;2023-08-24T08:47:10;100609.53;;;27.46;48.24
78625;BME280;67944;0.000;0.000;2023-08-24T08:49:38;100607.44;;;27.48;48.07
78625;BME280;67944;0.000;0.000;2023-08-24T08:52:05;100594.41;;;27.52;48.28
78625;BME280;67944;0.000;0.000;2023-08-24T08:54:31;100600.38;;;27.54;47.97
78625;BME280;67944;0.000;0.000;2023-08-24T08:56:59;100606.13;;;27.57;47.69
78625;BME280;67944;0.000;0.000;2023-08-24T08:59:27;100602.19;;;27.60;47.18
78625;BME280;67944;0.000;0.000;2023-08-24T09:01:56;100606.28;;;27.62;46.99
78625;BME280;67944;0.000;0.000;2023-08-24T09:04:23;100600.03;;;27.69;47.14
78625;BME280;67944;0.000;0.000;2023-08-24T09:06:49;100588.63;;;27.73;47.11
78625;BME280;67944;0.000;0.000;2023-08-24T09:09:15;100591.69;;;27.77;46.94
78625;BME280;67944;0.000;0.000;2023-08-24T09:11:41;100589.97;;;27.82;46.73
78625;BME280;67944;0.000;0.000;2023-08-24T09:14:07;100597.34;;;27.87;46.63
78625;BME280;67944;0.000;0.000;2023-08-24T09:16:33;100594.00;;;27.91;46.66
78625;BME280;67944;0.000;0.000;2023-08-24T09:18:58;100593.28;;;27.96;46.36
78625;BME280;67944;0.000;0.000;2023-08-24T09:21:24;100579.47;;;27.99;46.20
78625;BME280;67944;0.000;0.000;2023-08-24T09:23:54;100573.22;;;28.05;45.83
78625;BME280;67944;0.000;0.000;2023-08-24T09:26:46;100556.47;;;28.10;45.87
78625;BME280;67944;0.000;0.000;2023-08-24T09:29:14;100550.44;;;28.14;45.79
78625;BME280;67944;0.000;0.000;2023-08-24T09:31:40;100535.50;;;28.18;45.70
78625;BME280;67944;0.000;0.000;2023-08-24T09:34:06;100525.78;;;28.24;45.64
78625;BME280;67944;0.000;0.000;2023-08-24T09:36:33;100517.88;;;28.29;45.34
78625;BME280;67944;0.000;0.000;2023-08-24T09:39:00;100524.19;;;28.35;45.18
78625;BME280;67944;0.000;0.000;2023-08-24T09:44:04;100527.69;;;28.47;44.75
78625;BME280;67944;0.000;0.000;2023-08-24T09:46:29;100525.16;;;28.52;44.57
78625;BME280;67944;0.000;0.000;2023-08-24T09:48:55;100517.78;;;28.59;44.24
78625;BME280;67944;0.000;0.000;2023-08-24T09:51:26;100523.88;;;28.66;44.40
78625;BME280;67944;0.000;0.000;2023-08-24T09:53:52;100515.13;;;28.71;44.27
78625;BME280;67944;0.000;0.000;2023-08-24T09:56:25;100515.25;;;28.76;43.96
78625;BME280;67944;0.000;0.000;2023-08-24T09:58:54;100503.00;;;28.80;43.69
78625;BME280;67944;0.000;0.000;2023-08-24T10:01:22;100505.00;;;28.84;43.70
78625;BME280;67944;0.000;0.000;2023-08-24T10:03:51;100501.63;;;28.89;43.06
78625;BME280;67944;0.000;0.000;2023-08-24T10:06:27;100502.81;;;28.93;43.31
78625;BME280;67944;0.000;0.000;2023-08-24T10:08:59;100493.81;;;28.99;43.18
78625;BME280;67944;0.000;0.000;2023-08-24T10:11:28;100482.38;;;29.04;43.27
78625;BME280;67944;0.000;0.000;2023-08-24T10:14:10;100478.75;;;29.10;42.86
78625;BME280;67944;0.000;0.000;2023-08-24T10:16:39;100478.88;;;29.15;42.38
78625;BME280;67944;0.000;0.000;2023-08-24T10:19:07;100487.84;;;29.20;42.11
78625;BME280;67944;0.000;0.000;2023-08-24T10:21:33;100480.69;;;29.26;42.33
78625;BME280;67944;0.000;0.000;2023-08-24T10:24:01;100482.66;;;29.30;42.17
78625;BME280;67944;0.000;0.000;2023-08-24T10:26:28;100478.81;;;29.38;41.92
78625;BME280;67944;0.000;0.000;2023-08-24T10:28:55;100471.72;;;29.44;41.41
78625;BME280;67944;0.000;0.000;2023-08-24T10:31:23;100476.56;;;29.47;41.38
78625;BME280;67944;0.000;0.000;2023-08-24T10:33:50;100488.81;;;29.54;40.77
78625;BME280;67944;0.000;0.000;2023-08-24T10:36:16;100481.09;;;29.58;40.62
78625;BME280;67944;0.000;0.000;2023-08-24T10:38:43;100472.34;;;29.62;41.12
78625;BME280;67944;0.000;0.000;2023-08-24T10:41:09;100475.34;;;29.66;40.88
78625;BME280;67944;0.000;0.000;2023-08-24T10:43:40;100465.75;;;29.70;41.06
78625;BME280;67944;0.000;0.000;2023-08-24T10:46:12;100451.59;;;29.75;41.22
78625;BME280;67944;0.000;0.000;2023-08-24T10:51:22;100446.44;;;29.85;40.88
78625;BME280;67944;0.000;0.000;2023-08-24T10:54:01;100429.56;;;29.89;40.65
78625;BME280;67944;0.000;0.000;2023-08-24T10:59:15;100428.97;;;29.99;39.91
78625;BME280;67944;0.000;0.000;2023-08-24T11:01:43;100426.38;;;30.04;40.15
78625;BME280;67944;0.000;0.000;2023-08-24T11:04:19;100431.00;;;30.09;40.63
78625;BME280;67944;0.000;0.000;2023-08-24T11:06:56;100423.00;;;30.14;39.76
78625;BME280;67944;0.000;0.000;2023-08-24T11:09:23;100417.16;;;30.17;40.48
78625;BME280;67944;0.000;0.000;2023-08-24T11:11:57;100412.09;;;30.20;39.85
78625;BME280;67944;0.000;0.000;2023-08-24T11:14:23;100415.13;;;30.24;39.66
78625;BME280;67944;0.000;0.000;2023-08-24T11:16:52;100417.06;;;30.28;39.83
78625;BME280;67944;0.000;0.000;2023-08-24T11:19:18;100424.38;;;30.33;40.15
78625;BME280;67944;0.000;0.000;2023-08-24T11:21:45;100419.34;;;30.37;40.04
78625;BME280;67944;0.000;0.000;2023-08-24T11:24:15;100416.47;;;30.43;39.54
78625;BME280;67944;0.000;0.000;2023-08-24T11:26:47;100401.50;;;30.47;39.49
78625;BME280;67944;0.000;0.000;2023-08-24T11:29:14;100392.94;;;30.50;39.22
78625;BME280;67944;0.000;0.000;2023-08-24T11:31:40;100401.28;;;30.54;39.80
78625;BME280;67944;0.000;0.000;2023-08-24T11:34:06;100390.91;;;30.57;39.09
78625;BME280;67944;0.000;0.000;2023-08-24T11:36:43;100391.22;;;30.61;38.96
78625;BME280;67944;0.000;0.000;2023-08-24T11:39:16;100385.34;;;30.64;39.37
78625;BME280;67944;0.000;0.000;2023-08-24T11:41:42;100384.84;;;30.67;38.71
78625;BME280;67944;0.000;0.000;2023-08-24T11:44:09;100378.97;;;30.70;38.84
78625;BME280;67944;0.000;0.000;2023-08-24T11:46:37;100382.81;;;30.74;38.95
78625;BME280;67944;0.000;0.000;2023-08-24T11:49:08;100377.47;;;30.79;38.87
78625;BME280;67944;0.000;0.000;2023-08-24T11:51:33;100370.78;;;30.82;39.08
78625;BME280;67944;0.000;0.000;2023-08-24T11:54:01;100377.28;;;30.86;38.35
78625;BME280;67944;0.000;0.000;2023-08-24T11:56:27;100363.34;;;30.89;38.13
78625;BME280;67944;0.000;0.000;2023-08-24T11:58:53;100353.97;;;30.91;38.77
78625;BME280;67944;0.000;0.000;2023-08-24T12:01:19;100354.53;;;30.93;38.27
78625;BME280;67944;0.000;0.000;2023-08-24T12:03:44;100347.03;;;30.95;38.69
78625;BME280;67944;0.000;0.000;2023-08-24T12:06:12;100352.94;;;30.97;38.60
78625;BME280;67944;0.000;0.000;2023-08-24T12:08:44;100350.00;;;30.99;37.83
78625;BME280;67944;0.000;0.000;2023-08-24T12:11:18;100348.69;;;31.01;38.65
78625;BME280;67944;0.000;0.000;2023-08-24T12:13:55;100355.44;;;31.04;38.07
78625;BME280;67944;0.000;0.000;2023-08-24T12:16:22;100347.13;;;31.06;37.71
78625;BME280;67944;0.000;0.000;2023-08-24T12:18:56;100342.28;;;31.08;38.21
78625;BME280;67944;0.000;0.000;2023-08-24T12:21:24;100346.63;;;31.09;37.50
78625;BME280;67944;0.000;0.000;2023-08-24T12:26:27;100332.69;;;31.12;37.85
78625;BME280;67944;0.000;0.000;2023-08-24T12:28:55;100325.19;;;31.14;37.62
78625;BME280;67944;0.000;0.000;2023-08-24T12:31:26;100316.84;;;31.15;38.08
78625;BME280;67944;0.000;0.000;2023-08-24T12:34:04;100308.53;;;31.17;37.71
78625;BME280;67944;0.000;0.000;2023-08-24T12:36:35;100300.19;;;31.18;37.57
78625;BME280;67944;0.000;0.000;2023-08-24T12:39:02;100293.47;;;31.21;37.99
78625;BME280;67944;0.000;0.000;2023-08-24T12:41:29;100288.41;;;31.24;37.46
78625;BME280;67944;0.000;0.000;2023-08-24T12:43:55;100289.78;;;31.27;37.85
78625;BME280;67944;0.000;0.000;2023-08-24T12:46:21;100295.72;;;31.29;37.85
78625;BME280;67944;0.000;0.000;2023-08-24T12:48:46;100292.78;;;31.30;37.42
78625;BME280;67944;0.000;0.000;2023-08-24T12:51:12;100294.41;;;31.31;37.08
78625;BME280;67944;0.000;0.000;2023-08-24T12:53:38;100299.53;;;31.33;37.88
78625;BME280;67944;0.000;0.000;2023-08-24T12:56:04;100302.22;;;31.33;37.18
78625;BME280;67944;0.000;0.000;2023-08-24T12:58:30;100299.53;;;31.33;37.16
78625;BME280;67944;0.000;0.000;2023-08-24T13:00:55;100309.22;;;31.34;37.28
78625;BME280;67944;0.000;0.000;2023-08-24T13:03:21;100313.53;;;31.35;37.75
78625;BME280;67944;0.000;0.000;2023-08-24T13:05:46;100300.09;;;31.35;37.69
78625;BME280;67944;0.000;0.000;2023-08-24T13:08:13;100297.13;;;31.37;37.46
78625;BME280;67944;0.000;0.000;2023-08-24T13:10:38;100296.31;;;31.36;37.05
78625;BME280;67944;0.000;0.000;2023-08-24T13:13:04;100295.50;;;31.35;37.77
78625;BME280;67944;0.000;0.000;2023-08-24T13:15:29;100304.16;;;31.38;37.20
78625;BME280;67944;0.000;0.000;2023-08-24T13:17:55;100295.81;;;31.39;37.35
78625;BME280;67944;0.000;0.000;2023-08-24T13:20:21;100295.00;;;31.39;37.27
78625;BME280;67944;0.000;0.000;2023-08-24T13:22:47;100293.13;;;31.39;37.52
78625;BME280;67944;0.000;0.000;2023-08-24T13:25:12;100299.56;;;31.38;37.81
78625;BME280;67944;0.000;0.000;2023-08-24T13:27:38;100306.84;;;31.38;37.52
78625;BME280;67944;0.000;0.000;2023-08-24T13:30:03;100308.72;;;31.37;37.69
78625;BME280;67944;0.000;0.000;2023-08-24T13:32:29;100299.03;;;31.36;37.30
78625;BME280;67944;0.000;0.000;2023-08-24T13:34:55;100305.47;;;31.35;37.53
78625;BME280;67944;0.000;0.000;2023-08-24T13:37:21;100302.22;;;31.33;37.62
78625;BME280;67944;0.000;0.000;2023-08-24T13:39:46;100309.22;;;31.34;37.40
78625;BME280;67944;0.000;0.000;2023-08-24T13:42:12;100324.56;;;31.33;37.72
78625;BME280;67944;0.000;0.000;2023-08-24T13:44:38;100323.75;;;31.33;37.65
78625;BME280;67944;0.000;0.000;2023-08-24T13:47:04;100319.19;;;31.33;37.90
78625;BME280;67944;0.000;0.000;2023-08-24T13:49:29;100299.53;;;31.33;37.63
78625;BME280;67944;0.000;0.000;2023-08-24T13:51:55;100296.84;;;31.33;38.20
78625;BME280;67944;0.000;0.000;2023-08-24T13:54:20;100306.53;;;31.34;38.00
78625;BME280;67944;0.000;0.000;2023-08-24T13:56:47;100318.13;;;31.34;38.51
78625;BME280;67944;0.000;0.000;2023-08-24T13:59:14;100326.19;;;31.34;38.63
78625;BME280;67944;0.000;0.000;2023-08-24T14:01:43;100319.19;;;31.33;38.27